createdAt,value
2022-08-11T00:01:30.925Z,20.79
2022-08-11T00:04:22.350Z,20.78
2022-08-11T00:07:11.431Z,20.76
2022-08-11T00:10:00.413Z,20.74
2022-08-11T00:12:55.527Z,20.71
2022-08-11T00:15:45.518Z,20.69
2022-08-11T00:18:41.633Z,20.63
2022-08-11T00:22:02.875Z,20.60
2022-08-11T00:24:53.549Z,20.58
2022-08-11T00:27:42.700Z,20.56
2022-08-11T00:30:39.931Z,20.55
2022-08-11T00:33:41.202Z,20.51
2022-08-11T00:36:42.943Z,20.47
2022-08-11T00:39:36.579Z,20.46
2022-08-11T00:42:40.619Z,20.44
2022-08-11T00:45:33.547Z,20.41
2022-08-11T00:48:40.029Z,20.38
2022-08-11T00:51:56.762Z,20.36
2022-08-11T00:55:30.537Z,20.30
2022-08-11T00:58:56.427Z,20.26
2022-08-11T01:02:11.189Z,20.22
2022-08-11T01:05:28.441Z,20.20
2022-08-11T01:08:57.127Z,20.16
2022-08-11T01:12:21.553Z,20.11
2022-08-11T01:15:57.315Z,20.05
2022-08-11T01:19:21.267Z,20.01
2022-08-11T01:22:53.219Z,19.99
2022-08-11T01:26:20.788Z,19.95
2022-08-11T01:29:41.266Z,19.91
2022-08-11T01:33:14.963Z,19.86
2022-08-11T01:36:42.064Z,19.82
2022-08-11T01:40:11.053Z,19.79
2022-08-11T01:43:48.815Z,19.75
2022-08-11T01:46:45.003Z,19.73
2022-08-11T01:50:09.573Z,19.69
2022-08-11T01:53:04.994Z,19.67
2022-08-11T01:56:05.563Z,19.62
2022-08-11T01:59:04.092Z,19.60
2022-08-11T02:02:12.249Z,19.57
2022-08-11T02:05:20.378Z,19.55
2022-08-11T02:08:21.275Z,19.53
2022-08-11T02:11:35.787Z,19.48
2022-08-11T02:14:39.667Z,19.46
2022-08-11T02:17:46.265Z,19.44
2022-08-11T02:21:03.669Z,19.42
2022-08-11T02:24:04.056Z,19.40
2022-08-11T02:27:02.242Z,19.39
2022-08-11T02:30:06.743Z,19.33
2022-08-11T02:33:24.050Z,19.27
2022-08-11T02:36:21.140Z,19.26
2022-08-11T02:39:13.257Z,19.26
2022-08-11T02:42:33.455Z,19.24
2022-08-11T02:45:54.119Z,19.23
2022-08-11T02:49:14.499Z,19.20
2022-08-11T02:52:08.708Z,19.20
2022-08-11T02:55:10.717Z,19.19
2022-08-11T02:58:31.055Z,19.17
2022-08-11T03:01:39.213Z,19.17
2022-08-11T03:04:38.014Z,19.17
2022-08-11T03:07:32.997Z,19.17
2022-08-11T03:10:26.948Z,19.19
2022-08-11T03:13:39.542Z,19.19
2022-08-11T03:16:46.127Z,19.19
2022-08-11T03:19:46.717Z,19.17
2022-08-11T03:22:45.060Z,19.16
2022-08-11T03:25:39.591Z,19.16
2022-08-11T03:28:34.116Z,19.16
2022-08-11T03:31:27.279Z,19.17
2022-08-11T03:34:22.192Z,19.17
2022-08-11T03:37:46.066Z,19.19
2022-08-11T03:41:49.389Z,19.22
2022-08-11T03:44:37.925Z,19.23
2022-08-11T03:47:38.649Z,19.23
2022-08-11T03:50:45.698Z,19.23
2022-08-11T03:54:01.851Z,19.24
2022-08-11T03:57:35.450Z,19.25
2022-08-11T04:00:52.308Z,19.29
2022-08-11T04:04:08.590Z,19.33
2022-08-11T04:07:36.665Z,19.38
2022-08-11T04:10:53.408Z,19.43
2022-08-11T04:14:34.491Z,19.47
2022-08-11T04:17:58.710Z,19.53
2022-08-11T04:21:20.455Z,19.58
2022-08-11T04:24:50.494Z,19.62
2022-08-11T04:28:28.836Z,19.67
2022-08-11T04:31:49.588Z,19.73
2022-08-11T04:34:51.595Z,19.79
2022-08-11T04:38:17.337Z,19.86
2022-08-11T04:42:04.270Z,19.92
2022-08-11T04:45:47.055Z,20.01
2022-08-11T04:49:24.944Z,20.08
2022-08-11T04:53:09.775Z,20.15
2022-08-11T04:56:41.267Z,20.18
2022-08-11T05:00:07.056Z,20.22
2022-08-11T05:03:43.182Z,20.26
2022-08-11T05:07:05.295Z,20.32
2022-08-11T05:10:13.663Z,20.36
2022-08-11T05:13:18.073Z,20.44
2022-08-11T05:16:30.355Z,20.49
2022-08-11T05:19:40.502Z,20.56
2022-08-11T05:22:48.448Z,20.61
2022-08-11T05:26:44.013Z,20.69
2022-08-11T05:29:57.326Z,20.79
2022-08-11T05:33:13.816Z,20.92
2022-08-11T05:36:11.833Z,21.08
2022-08-11T05:39:36.767Z,21.23
2022-08-11T05:42:44.460Z,21.46
2022-08-11T05:46:02.593Z,21.68
2022-08-11T05:49:11.113Z,21.93
2022-08-11T05:52:21.341Z,22.17
2022-08-11T05:56:01.839Z,22.37
2022-08-11T05:58:51.637Z,22.57
2022-08-11T06:01:41.991Z,22.73
2022-08-11T06:04:31.029Z,22.85
2022-08-11T06:07:27.374Z,22.97
2022-08-11T06:10:25.419Z,23.09
2022-08-11T06:13:17.515Z,23.21
2022-08-11T06:16:07.266Z,23.34
2022-08-11T06:18:56.476Z,23.45
2022-08-11T06:21:48.398Z,23.55
2022-08-11T06:24:41.636Z,23.66
2022-08-11T06:27:34.579Z,23.74
2022-08-11T06:30:35.770Z,23.82
2022-08-11T06:33:36.105Z,23.90
2022-08-11T06:36:39.494Z,24.01
2022-08-11T06:39:29.116Z,24.10
2022-08-11T06:42:34.220Z,24.17
2022-08-11T06:45:30.890Z,24.29
2022-08-11T06:48:23.278Z,24.40
2022-08-11T06:51:12.716Z,24.46
2022-08-11T06:54:04.209Z,24.52
2022-08-11T06:57:29.345Z,24.58
2022-08-11T07:00:28.018Z,24.71
2022-08-11T07:03:19.101Z,24.74
2022-08-11T07:06:23.591Z,24.78
2022-08-11T07:10:00.190Z,24.79
2022-08-11T07:13:44.090Z,24.81
2022-08-11T07:16:26.757Z,24.92
2022-08-11T07:19:38.228Z,24.95
2022-08-11T07:22:48.035Z,25.01
2022-08-11T07:25:57.563Z,25.10
2022-08-11T07:28:58.578Z,25.20
2022-08-11T07:31:51.157Z,25.29
2022-08-11T07:34:45.706Z,25.34
2022-08-11T07:37:35.573Z,25.37
2022-08-11T07:40:24.983Z,25.40
2022-08-11T07:43:14.221Z,25.46
2022-08-11T07:46:23.774Z,25.54
2022-08-11T07:49:31.329Z,25.66
2022-08-11T07:52:29.971Z,25.70
2022-08-11T07:55:21.115Z,25.79
2022-08-11T07:58:52.192Z,25.95
2022-08-11T08:02:01.725Z,26.09
2022-08-11T08:05:09.899Z,26.24
2022-08-11T08:08:17.354Z,26.35
2022-08-11T08:11:27.582Z,26.34
2022-08-11T08:14:36.075Z,26.49
2022-08-11T08:17:43.695Z,26.68
2022-08-11T08:20:35.382Z,26.86
2022-08-11T08:23:32.900Z,26.92
2022-08-11T08:26:39.661Z,27.05
2022-08-11T08:29:49.520Z,27.09
2022-08-11T08:32:41.662Z,27.24
2022-08-11T08:35:32.896Z,27.46
2022-08-11T08:38:20.373Z,27.69
2022-08-11T08:41:09.923Z,27.90
2022-08-11T08:44:36.731Z,28.02
2022-08-11T08:47:41.775Z,28.19
2022-08-11T08:50:52.167Z,28.45
2022-08-11T08:53:49.954Z,28.76
2022-08-11T08:56:44.052Z,28.99
2022-08-11T08:59:47.541Z,29.13
2022-08-11T09:02:38.565Z,29.19
2022-08-11T09:05:26.800Z,29.29
2022-08-11T09:08:17.479Z,29.38
2022-08-11T09:11:24.570Z,29.41
2022-08-11T09:14:15.224Z,29.37
2022-08-11T09:17:03.972Z,29.44
2022-08-11T09:19:59.900Z,29.37
2022-08-11T09:26:36.269Z,29.55
2022-08-11T09:29:26.527Z,29.69
2022-08-11T09:32:15.516Z,29.81
2022-08-11T09:35:06.625Z,29.95
2022-08-11T09:38:14.080Z,30.10
2022-08-11T09:41:05.672Z,30.21
2022-08-11T09:44:12.802Z,30.25
2022-08-11T09:47:01.903Z,30.27
2022-08-11T09:49:52.701Z,30.29
2022-08-11T09:52:57.230Z,30.15
2022-08-11T09:55:53.100Z,30.13
2022-08-11T09:58:45.421Z,30.18
2022-08-11T10:01:37.198Z,30.29
2022-08-11T10:04:32.132Z,30.40
2022-08-11T10:07:21.215Z,30.42
2022-08-11T10:10:11.038Z,30.46
2022-08-11T10:13:03.965Z,30.49
2022-08-11T10:16:00.046Z,30.54
2022-08-11T10:19:06.034Z,30.58
2022-08-11T10:22:13.857Z,30.64
2022-08-11T10:25:20.854Z,30.66
2022-08-11T10:28:28.306Z,30.72
2022-08-11T10:31:47.167Z,30.81
2022-08-11T10:34:51.287Z,30.78
2022-08-11T10:38:08.655Z,30.81
2022-08-11T10:41:23.657Z,30.90
2022-08-11T10:44:13.178Z,30.86
2022-08-11T10:47:22.043Z,30.73
2022-08-11T10:50:31.928Z,30.68
2022-08-11T10:53:39.058Z,30.76
2022-08-11T10:56:47.471Z,30.81
2022-08-11T10:59:36.066Z,30.83
2022-08-11T11:02:26.654Z,30.71
2022-08-11T11:05:24.453Z,30.71
2022-08-11T11:08:30.804Z,30.82
2022-08-11T11:11:21.214Z,30.99
2022-08-11T11:14:30.353Z,31.16
2022-08-11T11:17:44.746Z,31.33
2022-08-11T11:20:46.508Z,31.44
2022-08-11T11:23:46.935Z,31.56
2022-08-11T11:26:49.835Z,31.64
2022-08-11T11:29:54.099Z,31.72
2022-08-11T11:32:56.398Z,31.82
2022-08-11T11:35:57.295Z,31.90
2022-08-11T11:38:45.725Z,31.98
2022-08-11T11:41:34.929Z,32.06
2022-08-11T11:44:24.215Z,32.08
2022-08-11T11:47:14.571Z,32.19
2022-08-11T11:50:05.294Z,32.27
2022-08-11T11:52:55.401Z,32.30
2022-08-11T11:55:44.344Z,32.29
2022-08-11T11:58:51.343Z,32.37
2022-08-11T12:01:40.043Z,32.40
2022-08-11T12:04:29.377Z,32.45
2022-08-11T12:07:36.425Z,32.48
2022-08-11T12:10:27.166Z,32.49
2022-08-11T12:13:35.605Z,32.44
2022-08-11T12:16:33.158Z,32.43
2022-08-11T12:19:28.094Z,32.43
2022-08-11T12:22:35.099Z,32.30
2022-08-11T12:25:42.027Z,32.27
2022-08-11T12:28:31.440Z,32.26
2022-08-11T12:34:24.214Z,32.30
2022-08-11T12:37:14.055Z,32.30
2022-08-11T12:40:49.582Z,32.30
2022-08-11T12:43:56.293Z,32.23
2022-08-11T12:46:48.528Z,32.15
2022-08-11T12:50:00.302Z,32.13
2022-08-11T12:52:56.501Z,32.03
2022-08-11T12:56:07.831Z,32.08
2022-08-11T12:59:17.235Z,32.17
2022-08-11T13:02:23.979Z,32.34
2022-08-11T13:05:17.683Z,32.37
2022-08-11T13:08:07.563Z,32.41
2022-08-11T13:11:16.856Z,32.50
2022-08-11T13:14:06.308Z,32.63
2022-08-11T13:17:13.416Z,32.75
2022-08-11T13:20:02.611Z,32.84
2022-08-11T13:22:52.598Z,32.92
2022-08-11T13:25:41.756Z,32.96
2022-08-11T13:28:31.792Z,33.01
2022-08-11T13:31:20.380Z,33.02
2022-08-11T13:34:09.135Z,33.02
2022-08-11T13:37:00.101Z,33.04
2022-08-11T13:39:48.917Z,33.04
2022-08-11T13:42:38.229Z,33.08
2022-08-11T13:45:27.855Z,33.16
2022-08-11T13:48:17.719Z,33.20
2022-08-11T13:51:24.538Z,33.21
2022-08-11T13:54:26.133Z,33.18
2022-08-11T13:58:08.441Z,33.18
2022-08-11T14:00:28.267Z,33.18
2022-08-11T14:03:20.943Z,33.13
2022-08-11T14:06:10.739Z,33.07
2022-08-11T14:08:59.752Z,33.04
2022-08-11T14:12:23.262Z,33.00
2022-08-11T14:15:19.342Z,32.95
2022-08-11T14:18:13.866Z,32.88
2022-08-11T14:21:24.163Z,32.84
2022-08-11T14:24:13.770Z,32.76
2022-08-11T14:27:05.120Z,32.67
2022-08-11T14:29:54.403Z,32.58
2022-08-11T14:32:52.707Z,32.49
2022-08-11T14:35:44.425Z,32.42
2022-08-11T14:38:39.510Z,32.37
2022-08-11T14:42:10.302Z,32.30
2022-08-11T14:45:16.566Z,32.23
2022-08-11T14:48:10.642Z,32.16
2022-08-11T14:51:00.348Z,32.10
2022-08-11T14:54:09.120Z,32.03
2022-08-11T14:56:59.953Z,31.96
2022-08-11T14:59:50.759Z,31.90
2022-08-11T15:02:58.502Z,31.87
2022-08-11T15:05:56.561Z,31.85
2022-08-11T15:08:55.964Z,31.73
2022-08-11T15:12:03.280Z,31.67
2022-08-11T15:15:09.845Z,31.64
2022-08-11T15:18:02.385Z,31.47
2022-08-11T15:21:09.542Z,31.35
2022-08-11T15:24:15.921Z,31.26
2022-08-11T15:27:25.329Z,31.27
2022-08-11T15:30:34.214Z,31.26
2022-08-11T15:33:44.823Z,31.25
2022-08-11T15:36:50.487Z,31.25
2022-08-11T15:40:08.067Z,31.26
2022-08-11T15:43:40.434Z,31.25
2022-08-11T15:46:33.954Z,31.22
2022-08-11T15:50:10.813Z,31.21
2022-08-11T15:52:46.743Z,31.16
2022-08-11T15:55:36.549Z,31.12
2022-08-11T15:58:45.423Z,31.10
2022-08-11T16:01:54.881Z,31.06
2022-08-11T16:04:45.647Z,31.01
2022-08-11T16:07:36.381Z,31.02
2022-08-11T16:10:29.457Z,30.96
2022-08-11T16:13:42.054Z,30.90
2022-08-11T16:16:30.665Z,30.84
2022-08-11T16:19:20.601Z,30.80
2022-08-11T16:22:11.810Z,30.77
2022-08-11T16:27:04.502Z,30.67
2022-08-11T16:28:14.675Z,30.55
2022-08-11T16:31:08.724Z,30.52
2022-08-11T16:33:57.758Z,30.49
2022-08-11T16:37:04.455Z,30.44
2022-08-11T16:39:53.335Z,30.40
2022-08-11T16:43:00.309Z,30.37
2022-08-11T16:46:31.215Z,30.29
2022-08-11T16:49:34.663Z,30.22
2022-08-11T16:52:24.132Z,30.13
2022-08-11T16:55:12.338Z,30.06
2022-08-11T16:58:39.979Z,29.91
2022-08-11T17:01:29.467Z,29.78
2022-08-11T17:04:51.921Z,29.67
2022-08-11T17:08:01.239Z,29.52
2022-08-11T17:11:11.133Z,29.38
2022-08-11T17:14:01.468Z,29.24
2022-08-11T17:16:52.541Z,29.10
2022-08-11T17:20:42.135Z,28.94
2022-08-11T17:23:14.785Z,28.76
2022-08-11T17:26:04.431Z,28.63
2022-08-11T17:28:57.725Z,28.51
2022-08-11T17:32:04.851Z,28.38
2022-08-11T17:35:15.148Z,28.21
2022-08-11T17:38:06.892Z,28.07
2022-08-11T17:41:23.206Z,27.93
2022-08-11T17:44:46.027Z,27.82
2022-08-11T17:47:53.212Z,27.69
2022-08-11T17:50:42.795Z,27.56
2022-08-11T17:54:02.131Z,27.44
2022-08-11T17:57:21.571Z,27.30
2022-08-11T18:00:12.288Z,27.17
2022-08-11T18:03:18.724Z,27.05
2022-08-11T18:06:12.732Z,26.94
2022-08-11T18:09:21.094Z,26.85
2022-08-11T18:12:29.872Z,26.74
2022-08-11T18:15:36.111Z,26.62
2022-08-11T18:18:42.317Z,26.52
2022-08-11T18:22:12.940Z,26.39
2022-08-11T18:25:19.969Z,26.25
2022-08-11T18:28:29.886Z,26.16
2022-08-11T18:31:39.382Z,26.06
2022-08-11T18:34:50.478Z,25.97
2022-08-11T18:38:01.594Z,25.86
2022-08-11T18:41:09.766Z,25.76
2022-08-11T18:44:20.547Z,25.70
2022-08-11T18:47:31.464Z,25.66
2022-08-11T18:50:40.973Z,25.60
2022-08-11T18:53:57.578Z,25.55
2022-08-11T18:57:06.386Z,25.51
2022-08-11T19:00:15.018Z,25.48
2022-08-11T19:03:25.474Z,25.43
2022-08-11T19:06:39.965Z,25.39
2022-08-11T19:09:48.632Z,25.38
2022-08-11T19:16:03.135Z,25.31
2022-08-11T19:19:14.187Z,25.26
2022-08-11T19:22:22.818Z,25.21
2022-08-11T19:25:32.182Z,25.16
2022-08-11T19:28:40.419Z,25.11
2022-08-11T19:31:48.100Z,25.05
2022-08-11T19:34:55.629Z,25.01
2022-08-11T19:38:03.573Z,24.96
2022-08-11T19:41:12.319Z,24.91
2022-08-11T19:44:22.069Z,24.84
2022-08-11T19:47:29.427Z,24.79
2022-08-11T19:50:37.960Z,24.72
2022-08-11T19:53:47.281Z,24.66
2022-08-11T19:56:55.066Z,24.58
2022-08-11T20:00:02.335Z,24.50
2022-08-11T20:03:11.029Z,24.43
2022-08-11T20:06:21.292Z,24.34
2022-08-11T20:10:04.731Z,24.27
2022-08-11T20:12:57.858Z,24.16
2022-08-11T20:16:04.999Z,24.07
2022-08-11T20:19:13.344Z,23.99
2022-08-11T20:22:20.052Z,23.88
2022-08-11T20:25:29.170Z,23.78
2022-08-11T20:28:37.945Z,23.70
2022-08-11T20:31:44.185Z,23.61
2022-08-11T20:34:54.606Z,23.53
2022-08-11T20:38:02.784Z,23.44
2022-08-11T20:41:09.779Z,23.35
2022-08-11T20:44:17.417Z,23.25
2022-08-11T20:47:26.085Z,23.16
2022-08-11T20:50:34.778Z,23.07
2022-08-11T20:53:42.793Z,22.95
2022-08-11T20:56:52.053Z,22.84
2022-08-11T20:59:59.065Z,22.69
2022-08-11T21:03:07.362Z,22.60
2022-08-11T21:06:14.055Z,22.51
2022-08-11T21:09:58.286Z,22.45
2022-08-11T21:13:26.480Z,22.39
2022-08-11T21:16:31.897Z,22.32
2022-08-11T21:20:01.445Z,22.26
2022-08-11T21:23:24.114Z,22.20
2022-08-11T21:26:34.420Z,22.12
2022-08-11T21:29:41.812Z,22.05
2022-08-11T21:32:49.705Z,22.00
2022-08-11T21:35:56.409Z,21.92
2022-08-11T21:39:02.858Z,21.85
2022-08-11T21:42:10.296Z,21.78
2022-08-11T21:45:17.473Z,21.71
2022-08-11T21:48:25.633Z,21.66
2022-08-11T21:51:32.635Z,21.59
2022-08-11T21:54:39.220Z,21.54
2022-08-11T21:57:50.003Z,21.48
2022-08-11T22:00:56.609Z,21.45
2022-08-11T22:04:04.233Z,21.39
2022-08-11T22:07:11.549Z,21.37
2022-08-11T22:10:41.631Z,21.32
2022-08-11T22:14:05.372Z,21.27
2022-08-11T22:17:10.208Z,21.21
2022-08-11T22:20:17.346Z,21.16
2022-08-11T22:23:25.113Z,21.12
2022-08-11T22:26:42.912Z,21.07
2022-08-11T22:29:53.647Z,21.03
2022-08-11T22:33:00.386Z,21.00
2022-08-11T22:36:08.199Z,20.93
2022-08-11T22:39:16.965Z,20.90
2022-08-11T22:42:33.457Z,20.87
2022-08-11T22:45:40.270Z,20.84
2022-08-11T22:48:49.111Z,20.80
2022-08-11T22:51:57.013Z,20.76
2022-08-11T22:55:05.086Z,20.74
2022-08-11T22:58:15.311Z,20.70
2022-08-11T23:01:22.121Z,20.65
2022-08-11T23:04:30.058Z,20.59
2022-08-11T23:07:49.545Z,20.56
2022-08-11T23:10:57.813Z,20.52
2022-08-11T23:14:04.516Z,20.48
2022-08-11T23:17:11.141Z,20.46
2022-08-11T23:20:33.826Z,20.40
2022-08-11T23:23:46.774Z,20.34
2022-08-11T23:26:54.519Z,20.31
2022-08-11T23:30:01.319Z,20.25
2022-08-11T23:33:12.083Z,20.16
2022-08-11T23:36:35.983Z,20.10
2022-08-11T23:39:45.501Z,20.05
2022-08-11T23:42:56.348Z,20.00
2022-08-11T23:46:03.380Z,19.95
2022-08-11T23:49:14.694Z,19.89
2022-08-11T23:52:21.757Z,19.83
2022-08-11T23:55:28.424Z,19.76
2022-08-11T23:58:34.383Z,19.72
